sensor_id;sensor_type;location;lat;lon;timestamp;pressure;altitude;pressure_sealevel;temperature;humidity
45441;BME280;31189;38.790;-77.084;2022-07-23T00:01:04;101150.62;;;34.16;44.52
45441;BME280;31189;38.790;-77.084;2022-07-23T00:03:31;101152.05;;;33.53;44.48
45441;BME280;31189;38.790;-77.084;2022-07-23T00:05:59;101149.41;;;33.81;44.99
45441;BME280;31189;38.790;-77.084;2022-07-23T00:08:27;101150.83;;;33.28;45.82
45441;BME280;31189;38.790;-77.084;2022-07-23T00:10:55;101147.91;;;33.12;47.97
45441;BME280;31189;38.790;-77.084;2022-07-23T00:13:23;101146.36;;;32.70;47.09
45441;BME280;31189;38.790;-77.084;2022-07-23T00:15:51;101148.89;;;33.03;47.73
45441;BME280;31189;38.790;-77.084;2022-07-23T00:18:18;101152.52;;;32.76;49.37
45441;BME280;31189;38.790;-77.084;2022-07-23T00:20:48;101158.08;;;32.47;49.59
45441;BME280;31189;38.790;-77.084;2022-07-23T00:23:16;101156.74;;;32.52;49.60
45441;BME280;31189;38.790;-77.084;2022-07-23T00:25:43;101161.67;;;31.92;53.21
45441;BME280;31189;38.790;-77.084;2022-07-23T00:28:12;101162.30;;;32.36;52.66
45441;BME280;31189;38.790;-77.084;2022-07-23T00:30:40;101159.09;;;31.32;55.61
45441;BME280;31189;38.790;-77.084;2022-07-23T00:33:08;101165.58;;;31.00;59.13
45441;BME280;31189;38.790;-77.084;2022-07-23T00:35:38;101170.09;;;31.09;58.11
45441;BME280;31189;38.790;-77.084;2022-07-23T00:38:06;101172.01;;;32.03;55.08
45441;BME280;31189;38.790;-77.084;2022-07-23T00:40:35;101171.93;;;30.34;60.48
45441;BME280;31189;38.790;-77.084;2022-07-23T00:43:04;101178.43;;;30.71;59.52
45441;BME280;31189;38.790;-77.084;2022-07-23T00:45:31;101175.05;;;31.30;58.01
45441;BME280;31189;38.790;-77.084;2022-07-23T00:48:00;101176.09;;;31.58;56.16
45441;BME280;31189;38.790;-77.084;2022-07-23T00:50:29;101175.89;;;32.37;54.17
45441;BME280;31189;38.790;-77.084;2022-07-23T00:52:56;101177.95;;;32.34;54.34
45441;BME280;31189;38.790;-77.084;2022-07-23T00:55:24;101178.86;;;32.31;53.83
45441;BME280;31189;38.790;-77.084;2022-07-23T00:57:53;101184.44;;;32.22;54.16
45441;BME280;31189;38.790;-77.084;2022-07-23T01:00:22;101186.60;;;31.97;53.45
45441;BME280;31189;38.790;-77.084;2022-07-23T01:02:50;101188.26;;;30.49;57.84
45441;BME280;31189;38.790;-77.084;2022-07-23T01:05:18;101187.74;;;31.73;53.48
45441;BME280;31189;38.790;-77.084;2022-07-23T01:07:47;101189.90;;;31.14;55.53
45441;BME280;31189;38.790;-77.084;2022-07-23T01:10:15;101191.48;;;32.27;52.41
45441;BME280;31189;38.790;-77.084;2022-07-23T01:12:43;101189.71;;;32.46;50.99
45441;BME280;31189;38.790;-77.084;2022-07-23T01:15:12;101194.72;;;32.51;51.43
45441;BME280;31189;38.790;-77.084;2022-07-23T01:17:39;101196.99;;;32.06;51.33
45441;BME280;31189;38.790;-77.084;2022-07-23T01:20:08;101193.89;;;32.82;50.39
45441;BME280;31189;38.790;-77.084;2022-07-23T01:22:36;101198.41;;;31.95;52.18
45441;BME280;31189;38.790;-77.084;2022-07-23T01:25:05;101201.83;;;30.66;56.66
45441;BME280;31189;38.790;-77.084;2022-07-23T01:27:33;101204.52;;;29.86;58.54
45441;BME280;31189;38.790;-77.084;2022-07-23T01:30:02;101203.56;;;31.59;53.73
45441;BME280;31189;38.790;-77.084;2022-07-23T01:32:31;101205.84;;;30.80;56.17
45441;BME280;31189;38.790;-77.084;2022-07-23T01:34:58;101209.72;;;31.44;54.02
45441;BME280;31189;38.790;-77.084;2022-07-23T01:37:26;101206.28;;;31.41;52.42
45441;BME280;31189;38.790;-77.084;2022-07-23T01:39:54;101206.58;;;32.54;50.79
45441;BME280;31189;38.790;-77.084;2022-07-23T01:42:22;101208.38;;;32.60;50.52
45441;BME280;31189;38.790;-77.084;2022-07-23T01:44:50;101207.42;;;32.11;51.23
45441;BME280;31189;38.790;-77.084;2022-07-23T01:47:19;101206.44;;;32.35;50.70
45441;BME280;31189;38.790;-77.084;2022-07-23T01:49:47;101211.35;;;33.09;49.53
45441;BME280;31189;38.790;-77.084;2022-07-23T01:52:15;101214.20;;;33.44;48.34
45441;BME280;31189;38.790;-77.084;2022-07-23T01:54:43;101218.78;;;33.19;48.99
45441;BME280;31189;38.790;-77.084;2022-07-23T01:57:11;101224.10;;;32.57;48.97
45441;BME280;31189;38.790;-77.084;2022-07-23T01:59:39;101228.31;;;32.41;49.41
45441;BME280;31189;38.790;-77.084;2022-07-23T02:02:06;101229.97;;;32.61;49.88
45441;BME280;31189;38.790;-77.084;2022-07-23T02:04:34;101231.44;;;31.40;52.21
45441;BME280;31189;38.790;-77.084;2022-07-23T02:07:03;101230.54;;;32.29;50.83
45441;BME280;31189;38.790;-77.084;2022-07-23T02:09:31;101232.28;;;32.02;50.43
45441;BME280;31189;38.790;-77.084;2022-07-23T02:11:59;101233.01;;;32.68;49.12
45441;BME280;31189;38.790;-77.084;2022-07-23T02:14:27;101235.66;;;32.81;48.24
45441;BME280;31189;38.790;-77.084;2022-07-23T02:16:55;101242.64;;;32.03;50.69
45441;BME280;31189;38.790;-77.084;2022-07-23T02:19:24;101243.20;;;32.84;49.09
45441;BME280;31189;38.790;-77.084;2022-07-23T02:21:52;101242.95;;;32.96;49.69
45441;BME280;31189;38.790;-77.084;2022-07-23T02:24:21;101246.06;;;32.66;50.71
45441;BME280;31189;38.790;-77.084;2022-07-23T02:26:50;101253.04;;;32.35;51.64
45441;BME280;31189;38.790;-77.084;2022-07-23T02:29:17;101252.01;;;32.34;50.71
45441;BME280;31189;38.790;-77.084;2022-07-23T02:31:45;101250.36;;;33.47;49.49
45441;BME280;31189;38.790;-77.084;2022-07-23T02:34:13;101254.26;;;33.04;50.25
45441;BME280;31189;38.790;-77.084;2022-07-23T02:36:41;101252.23;;;33.03;49.32
45441;BME280;31189;38.790;-77.084;2022-07-23T02:39:09;101254.33;;;32.58;50.18
45441;BME280;31189;38.790;-77.084;2022-07-23T02:41:37;101251.95;;;32.36;51.05
45441;BME280;31189;38.790;-77.084;2022-07-23T02:44:04;101254.53;;;32.97;50.39
45441;BME280;31189;38.790;-77.084;2022-07-23T02:46:32;101256.68;;;32.47;50.45
45441;BME280;31189;38.790;-77.084;2022-07-23T02:49:00;101260.32;;;33.06;50.30
45441;BME280;31189;38.790;-77.084;2022-07-23T02:51:28;101261.83;;;33.05;50.47
45441;BME280;31189;38.790;-77.084;2022-07-23T02:53:56;101259.27;;;32.54;51.46
45441;BME280;31189;38.790;-77.084;2022-07-23T02:56:24;101258.04;;;32.36;50.95
45441;BME280;31189;38.790;-77.084;2022-07-23T02:58:52;101256.51;;;31.82;52.69
45441;BME280;31189;38.790;-77.084;2022-07-23T03:01:21;101254.37;;;31.52;53.95
45441;BME280;31189;38.790;-77.084;2022-07-23T03:03:49;101254.38;;;30.66;56.55
45441;BME280;31189;38.790;-77.084;2022-07-23T03:06:17;101260.97;;;31.39;56.13
45441;BME280;31189;38.790;-77.084;2022-07-23T03:08:45;101265.45;;;31.16;55.55
45441;BME280;31189;38.790;-77.084;2022-07-23T03:11:13;101264.46;;;31.41;54.79
45441;BME280;31189;38.790;-77.084;2022-07-23T03:13:41;101264.84;;;31.48;55.32
45441;BME280;31189;38.790;-77.084;2022-07-23T03:16:08;101267.19;;;28.42;65.61
45441;BME280;31189;38.790;-77.084;2022-07-23T03:18:37;101268.51;;;29.82;60.25
45441;BME280;31189;38.790;-77.084;2022-07-23T03:21:05;101274.62;;;30.95;56.02
45441;BME280;31189;38.790;-77.084;2022-07-23T03:23:33;101280.23;;;30.49;57.28
45441;BME280;31189;38.790;-77.084;2022-07-23T03:26:01;101276.84;;;31.78;53.66
45441;BME280;31189;38.790;-77.084;2022-07-23T03:28:29;101278.29;;;32.26;52.26
45441;BME280;31189;38.790;-77.084;2022-07-23T03:30:58;101279.28;;;30.75;54.54
45441;BME280;31189;38.790;-77.084;2022-07-23T03:33:26;101280.92;;;32.11;51.62
45441;BME280;31189;38.790;-77.084;2022-07-23T03:35:54;101278.61;;;32.39;50.64
45441;BME280;31189;38.790;-77.084;2022-07-23T03:38:22;101281.34;;;32.52;49.82
45441;BME280;31189;38.790;-77.084;2022-07-23T03:40:50;101284.19;;;32.01;51.20
45441;BME280;31189;38.790;-77.084;2022-07-23T03:43:18;101283.76;;;32.80;49.72
45441;BME280;31189;38.790;-77.084;2022-07-23T03:45:45;101284.94;;;32.84;49.13
45441;BME280;31189;38.790;-77.084;2022-07-23T03:48:14;101290.18;;;32.94;49.38
45441;BME280;31189;38.790;-77.084;2022-07-23T03:50:41;101291.99;;;32.75;49.56
45441;BME280;31189;38.790;-77.084;2022-07-23T03:53:09;101297.02;;;31.99;51.24
45441;BME280;31189;38.790;-77.084;2022-07-23T03:55:37;101298.45;;;31.38;53.27
45441;BME280;31189;38.790;-77.084;2022-07-23T03:58:04;101300.89;;;32.01;50.14
45441;BME280;31189;38.790;-77.084;2022-07-23T04:00:32;101295.46;;;31.96;49.43
45441;BME280;31189;38.790;-77.084;2022-07-23T04:03:00;101294.89;;;32.66;48.80
45441;BME280;31189;38.790;-77.084;2022-07-23T04:05:28;101296.90;;;32.62;48.04
45441;BME280;31189;38.790;-77.084;2022-07-23T04:07:55;101297.33;;;32.39;48.55
45441;BME280;31189;38.790;-77.084;2022-07-23T04:10:23;101297.71;;;32.73;47.47
45441;BME280;31189;38.790;-77.084;2022-07-23T04:12:51;101297.41;;;32.69;47.34
45441;BME280;31189;38.790;-77.084;2022-07-23T04:15:21;101299.89;;;33.27;47.03
45441;BME280;31189;38.790;-77.084;2022-07-23T04:17:48;101299.93;;;33.23;46.65
45441;BME280;31189;38.790;-77.084;2022-07-23T04:20:16;101303.15;;;33.13;46.20
45441;BME280;31189;38.790;-77.084;2022-07-23T04:22:43;101302.06;;;33.12;46.07
45441;BME280;31189;38.790;-77.084;2022-07-23T04:25:11;101304.56;;;33.23;45.25
45441;BME280;31189;38.790;-77.084;2022-07-23T04:27:39;101305.32;;;32.86;45.58
45441;BME280;31189;38.790;-77.084;2022-07-23T04:30:08;101306.98;;;33.19;45.98
45441;BME280;31189;38.790;-77.084;2022-07-23T04:32:36;101307.54;;;32.91;45.71
45441;BME280;31189;38.790;-77.084;2022-07-23T04:35:04;101307.63;;;33.21;45.33
45441;BME280;31189;38.790;-77.084;2022-07-23T04:37:32;101308.51;;;33.24;45.34
45441;BME280;31189;38.790;-77.084;2022-07-23T04:40:00;101309.91;;;32.16;46.53
45441;BME280;31189;38.790;-77.084;2022-07-23T04:42:28;101308.89;;;32.18;46.44
45441;BME280;31189;38.790;-77.084;2022-07-23T04:44:56;101308.48;;;32.79;45.50
45441;BME280;31189;38.790;-77.084;2022-07-23T04:47:29;101308.24;;;32.18;45.55
45441;BME280;31189;38.790;-77.084;2022-07-23T04:49:57;101307.57;;;32.68;46.15
45441;BME280;31189;38.790;-77.084;2022-07-23T04:52:25;101311.97;;;32.56;45.89
45441;BME280;31189;38.790;-77.084;2022-07-23T04:54:53;101314.13;;;32.06;46.52
45441;BME280;31189;38.790;-77.084;2022-07-23T04:57:21;101313.53;;;32.34;46.16
45441;BME280;31189;38.790;-77.084;2022-07-23T04:59:49;101313.86;;;32.47;45.71
45441;BME280;31189;38.790;-77.084;2022-07-23T05:02:16;101317.59;;;32.80;46.00
45441;BME280;31189;38.790;-77.084;2022-07-23T05:04:44;101317.41;;;32.53;46.27
45441;BME280;31189;38.790;-77.084;2022-07-23T05:07:12;101321.28;;;32.42;46.78
45441;BME280;31189;38.790;-77.084;2022-07-23T05:09:40;101322.78;;;31.93;47.66
45441;BME280;31189;38.790;-77.084;2022-07-23T05:12:08;101325.32;;;32.08;50.46
45441;BME280;31189;38.790;-77.084;2022-07-23T05:14:36;101326.20;;;32.30;49.95
45441;BME280;31189;38.790;-77.084;2022-07-23T05:17:04;101325.68;;;32.64;49.52
45441;BME280;31189;38.790;-77.084;2022-07-23T05:19:32;101323.65;;;31.76;49.16
45441;BME280;31189;38.790;-77.084;2022-07-23T05:21:59;101326.25;;;32.35;48.77
45441;BME280;31189;38.790;-77.084;2022-07-23T05:24:27;101320.73;;;31.73;49.64
45441;BME280;31189;38.790;-77.084;2022-07-23T05:26:55;101324.26;;;32.66;49.19
45441;BME280;31189;38.790;-77.084;2022-07-23T05:29:23;101325.68;;;32.05;49.79
45441;BME280;31189;38.790;-77.084;2022-07-23T05:31:50;101326.98;;;32.49;49.18
45441;BME280;31189;38.790;-77.084;2022-07-23T05:34:18;101323.09;;;31.88;49.12
45441;BME280;31189;38.790;-77.084;2022-07-23T05:36:46;101326.56;;;32.32;48.72
45441;BME280;31189;38.790;-77.084;2022-07-23T05:39:14;101323.97;;;32.67;48.23
45441;BME280;31189;38.790;-77.084;2022-07-23T05:41:42;101320.34;;;32.69;47.93
45441;BME280;31189;38.790;-77.084;2022-07-23T05:44:10;101322.62;;;32.36;48.63
45441;BME280;31189;38.790;-77.084;2022-07-23T05:46:37;101324.63;;;32.15;49.15
45441;BME280;31189;38.790;-77.084;2022-07-23T05:49:05;101325.42;;;32.20;49.78
45441;BME280;31189;38.790;-77.084;2022-07-23T05:51:33;101332.58;;;31.78;50.30
45441;BME280;31189;38.790;-77.084;2022-07-23T05:54:00;101334.53;;;31.82;50.77
45441;BME280;31189;38.790;-77.084;2022-07-23T05:56:28;101337.10;;;31.41;51.31
45441;BME280;31189;38.790;-77.084;2022-07-23T05:58:56;101339.17;;;31.61;51.16
45441;BME280;31189;38.790;-77.084;2022-07-23T06:01:23;101341.48;;;30.98;51.59
45441;BME280;31189;38.790;-77.084;2022-07-23T06:03:51;101340.20;;;31.65;51.03
45441;BME280;31189;38.790;-77.084;2022-07-23T06:06:20;101346.24;;;31.19;52.96
45441;BME280;31189;38.790;-77.084;2022-07-23T06:08:48;101345.99;;;31.31;53.36
45441;BME280;31189;38.790;-77.084;2022-07-23T06:11:16;101345.66;;;31.20;52.77
45441;BME280;31189;38.790;-77.084;2022-07-23T06:13:44;101345.55;;;30.49;55.11
45441;BME280;31189;38.790;-77.084;2022-07-23T06:16:12;101345.14;;;30.56;56.40
45441;BME280;31189;38.790;-77.084;2022-07-23T06:18:39;101345.39;;;31.50;53.56
45441;BME280;31189;38.790;-77.084;2022-07-23T06:21:07;101343.12;;;31.48;53.20
45441;BME280;31189;38.790;-77.084;2022-07-23T06:23:35;101338.90;;;31.41;53.45
45441;BME280;31189;38.790;-77.084;2022-07-23T06:26:03;101337.06;;;31.81;53.53
45441;BME280;31189;38.790;-77.084;2022-07-23T06:28:30;101336.07;;;31.21;53.68
45441;BME280;31189;38.790;-77.084;2022-07-23T06:30:58;101335.98;;;31.01;54.60
45441;BME280;31189;38.790;-77.084;2022-07-23T06:33:26;101338.12;;;30.85;54.85
45441;BME280;31189;38.790;-77.084;2022-07-23T06:35:54;101341.53;;;30.98;54.90
45441;BME280;31189;38.790;-77.084;2022-07-23T06:38:22;101339.70;;;30.55;56.15
45441;BME280;31189;38.790;-77.084;2022-07-23T06:40:50;101336.92;;;30.31;57.90
45441;BME280;31189;38.790;-77.084;2022-07-23T06:43:18;101337.83;;;31.01;56.75
45441;BME280;31189;38.790;-77.084;2022-07-23T06:45:46;101337.56;;;30.92;56.29
45441;BME280;31189;38.790;-77.084;2022-07-23T06:48:14;101337.25;;;31.13;55.87
45441;BME280;31189;38.790;-77.084;2022-07-23T06:50:42;101340.39;;;30.91;56.00
45441;BME280;31189;38.790;-77.084;2022-07-23T06:53:10;101339.45;;;30.36;56.59
45441;BME280;31189;38.790;-77.084;2022-07-23T06:55:38;101338.57;;;30.36;56.49
45441;BME280;31189;38.790;-77.084;2022-07-23T06:58:06;101338.02;;;30.27;58.07
45441;BME280;31189;38.790;-77.084;2022-07-23T07:00:34;101339.38;;;30.16;58.65
45441;BME280;31189;38.790;-77.084;2022-07-23T07:03:02;101341.44;;;29.97;59.63
45441;BME280;31189;38.790;-77.084;2022-07-23T07:05:30;101345.00;;;29.41;62.20
45441;BME280;31189;38.790;-77.084;2022-07-23T07:07:58;101348.85;;;30.17;61.85
45441;BME280;31189;38.790;-77.084;2022-07-23T07:10:26;101347.28;;;28.79;63.80
45441;BME280;31189;38.790;-77.084;2022-07-23T07:12:54;101344.61;;;29.86;60.91
45441;BME280;31189;38.790;-77.084;2022-07-23T07:15:26;101351.87;;;29.52;62.43
45441;BME280;31189;38.790;-77.084;2022-07-23T07:17:54;101354.43;;;28.66;64.91
45441;BME280;31189;38.790;-77.084;2022-07-23T07:20:22;101356.59;;;29.22;65.21
45441;BME280;31189;38.790;-77.084;2022-07-23T07:22:50;101360.80;;;29.47;64.25
45441;BME280;31189;38.790;-77.084;2022-07-23T07:25:18;101362.54;;;29.49;64.78
45441;BME280;31189;38.790;-77.084;2022-07-23T07:27:46;101363.30;;;29.59;62.94
45441;BME280;31189;38.790;-77.084;2022-07-23T07:30:14;101362.32;;;29.14;63.56
45441;BME280;31189;38.790;-77.084;2022-07-23T07:32:42;101366.74;;;28.99;67.11
45441;BME280;31189;38.790;-77.084;2022-07-23T07:35:10;101366.06;;;29.83;63.47
45441;BME280;31189;38.790;-77.084;2022-07-23T07:37:38;101368.05;;;29.12;64.51
45441;BME280;31189;38.790;-77.084;2022-07-23T07:40:07;101367.12;;;29.89;61.78
45441;BME280;31189;38.790;-77.084;2022-07-23T07:42:43;101369.17;;;30.10;63.09
45441;BME280;31189;38.790;-77.084;2022-07-23T07:45:11;101364.01;;;30.12;61.71
45441;BME280;31189;38.790;-77.084;2022-07-23T07:47:39;101361.79;;;30.47;59.51
45441;BME280;31189;38.790;-77.084;2022-07-23T07:50:08;101362.95;;;30.29;59.91
45441;BME280;31189;38.790;-77.084;2022-07-23T07:52:36;101366.09;;;30.47;58.69
45441;BME280;31189;38.790;-77.084;2022-07-23T07:55:05;101372.79;;;30.55;58.90
45441;BME280;31189;38.790;-77.084;2022-07-23T07:57:33;101373.13;;;29.80;60.55
45441;BME280;31189;38.790;-77.084;2022-07-23T08:00:02;101374.25;;;29.93;60.12
45441;BME280;31189;38.790;-77.084;2022-07-23T08:02:30;101378.89;;;29.91;60.22
45441;BME280;31189;38.790;-77.084;2022-07-23T08:05:07;101379.78;;;30.22;59.07
45441;BME280;31189;38.790;-77.084;2022-07-23T08:07:35;101381.71;;;30.34;59.03
45441;BME280;31189;38.790;-77.084;2022-07-23T08:10:04;101381.87;;;30.20;59.09
45441;BME280;31189;38.790;-77.084;2022-07-23T08:12:39;101384.49;;;29.78;59.11
45441;BME280;31189;38.790;-77.084;2022-07-23T08:15:08;101389.44;;;30.50;58.53
45441;BME280;31189;38.790;-77.084;2022-07-23T08:17:36;101390.82;;;30.47;58.66
45441;BME280;31189;38.790;-77.084;2022-07-23T08:20:06;101393.78;;;30.27;60.43
45441;BME280;31189;38.790;-77.084;2022-07-23T08:22:54;101394.69;;;30.12;59.00
45441;BME280;31189;38.790;-77.084;2022-07-23T08:25:25;101400.91;;;29.26;60.20
45441;BME280;31189;38.790;-77.084;2022-07-23T08:27:53;101404.33;;;30.47;56.59
45441;BME280;31189;38.790;-77.084;2022-07-23T08:30:22;101404.10;;;30.15;58.31
45441;BME280;31189;38.790;-77.084;2022-07-23T08:32:52;101405.52;;;30.64;58.57
45441;BME280;31189;38.790;-77.084;2022-07-23T08:35:25;101405.17;;;29.87;59.26
45441;BME280;31189;38.790;-77.084;2022-07-23T08:37:53;101405.71;;;30.28;57.90
45441;BME280;31189;38.790;-77.084;2022-07-23T08:40:22;101409.04;;;30.79;57.67
45441;BME280;31189;38.790;-77.084;2022-07-23T08:42:51;101409.57;;;30.44;59.04
45441;BME280;31189;38.790;-77.084;2022-07-23T08:45:22;101413.70;;;30.28;59.67
45441;BME280;31189;38.790;-77.084;2022-07-23T08:47:51;101411.90;;;29.99;61.20
45441;BME280;31189;38.790;-77.084;2022-07-23T08:50:20;101412.75;;;29.82;61.78
45441;BME280;31189;38.790;-77.084;2022-07-23T08:52:50;101414.16;;;29.80;63.41
45441;BME280;31189;38.790;-77.084;2022-07-23T08:55:19;101412.58;;;29.92;62.71
45441;BME280;31189;38.790;-77.084;2022-07-23T08:57:49;101410.81;;;29.67;62.99
45441;BME280;31189;38.790;-77.084;2022-07-23T09:00:19;101407.90;;;29.94;63.11
45441;BME280;31189;38.790;-77.084;2022-07-23T09:02:48;101407.99;;;30.11;61.28
45441;BME280;31189;38.790;-77.084;2022-07-23T09:05:16;101405.77;;;30.10;61.42
45441;BME280;31189;38.790;-77.084;2022-07-23T09:08:18;101406.25;;;30.53;63.11
45441;BME280;31189;38.790;-77.084;2022-07-23T09:10:50;101405.69;;;29.78;63.15
45441;BME280;31189;38.790;-77.084;2022-07-23T09:13:28;101404.83;;;30.30;61.19
45441;BME280;31189;38.790;-77.084;2022-07-23T09:15:59;101407.05;;;29.92;62.44
45441;BME280;31189;38.790;-77.084;2022-07-23T09:18:31;101409.90;;;29.33;64.10
45441;BME280;31189;38.790;-77.084;2022-07-23T09:21:09;101414.34;;;29.46;65.20
45441;BME280;31189;38.790;-77.084;2022-07-23T09:23:39;101414.43;;;29.18;65.89
45441;BME280;31189;38.790;-77.084;2022-07-23T09:26:22;101415.00;;;29.39;67.76
45441;BME280;31189;38.790;-77.084;2022-07-23T09:28:54;101419.66;;;29.51;67.39
45441;BME280;31189;38.790;-77.084;2022-07-23T09:31:24;101418.68;;;29.60;66.44
45441;BME280;31189;38.790;-77.084;2022-07-23T09:34:07;101417.84;;;29.39;66.56
45441;BME280;31189;38.790;-77.084;2022-07-23T09:36:35;101421.01;;;29.07;68.02
45441;BME280;31189;38.790;-77.084;2022-07-23T09:39:04;101422.98;;;29.65;65.45
45441;BME280;31189;38.790;-77.084;2022-07-23T09:41:38;101425.30;;;29.45;65.24
45441;BME280;31189;38.790;-77.084;2022-07-23T09:44:11;101429.90;;;29.42;65.18
45441;BME280;31189;38.790;-77.084;2022-07-23T09:46:40;101433.10;;;29.50;66.52
45441;BME280;31189;38.790;-77.084;2022-07-23T09:49:13;101440.62;;;29.27;67.86
45441;BME280;31189;38.790;-77.084;2022-07-23T09:51:47;101444.23;;;29.30;66.57
45441;BME280;31189;38.790;-77.084;2022-07-23T09:54:26;101445.13;;;29.24;68.06
45441;BME280;31189;38.790;-77.084;2022-07-23T09:56:55;101451.28;;;29.32;66.76
45441;BME280;31189;38.790;-77.084;2022-07-23T09:59:26;101449.85;;;29.34;67.64
45441;BME280;31189;38.790;-77.084;2022-07-23T10:01:56;101452.43;;;29.69;66.13
45441;BME280;31189;38.790;-77.084;2022-07-23T10:04:26;101454.57;;;28.56;70.48
45441;BME280;31189;38.790;-77.084;2022-07-23T10:06:56;101457.75;;;29.56;66.42
45441;BME280;31189;38.790;-77.084;2022-07-23T10:09:27;101459.24;;;29.17;65.50
45441;BME280;31189;38.790;-77.084;2022-07-23T10:11:57;101461.60;;;29.28;67.33
45441;BME280;31189;38.790;-77.084;2022-07-23T10:14:26;101462.97;;;28.81;67.81
45441;BME280;31189;38.790;-77.084;2022-07-23T10:16:54;101464.72;;;29.41;67.45
45441;BME280;31189;38.790;-77.084;2022-07-23T10:19:23;101467.70;;;29.37;67.44
45441;BME280;31189;38.790;-77.084;2022-07-23T10:21:54;101472.58;;;28.98;70.59
45441;BME280;31189;38.790;-77.084;2022-07-23T10:24:38;101476.63;;;29.56;67.92
45441;BME280;31189;38.790;-77.084;2022-07-23T10:27:20;101483.41;;;29.14;68.84
45441;BME280;31189;38.790;-77.084;2022-07-23T10:30:01;101486.48;;;28.75;70.80
45441;BME280;31189;38.790;-77.084;2022-07-23T10:32:40;101487.21;;;28.38;70.46
45441;BME280;31189;38.790;-77.084;2022-07-23T10:35:18;101491.61;;;28.81;70.99
45441;BME280;31189;38.790;-77.084;2022-07-23T10:37:53;101490.30;;;29.13;71.66
45441;BME280;31189;38.790;-77.084;2022-07-23T10:40:24;101489.61;;;28.69;71.77
45441;BME280;31189;38.790;-77.084;2022-07-23T10:42:53;101495.97;;;28.80;71.50
45441;BME280;31189;38.790;-77.084;2022-07-23T10:45:29;101501.11;;;28.65;70.19
45441;BME280;31189;38.790;-77.084;2022-07-23T10:48:13;101508.09;;;28.82;70.12
45441;BME280;31189;38.790;-77.084;2022-07-23T10:50:43;101511.42;;;29.39;68.64
45441;BME280;31189;38.790;-77.084;2022-07-23T10:53:14;101510.75;;;28.87;69.51
45441;BME280;31189;38.790;-77.084;2022-07-23T10:55:47;101517.04;;;29.36;69.10
45441;BME280;31189;38.790;-77.084;2022-07-23T10:58:19;101519.40;;;29.59;68.18
45441;BME280;31189;38.790;-77.084;2022-07-23T11:00:49;101520.40;;;29.46;68.13
45441;BME280;31189;38.790;-77.084;2022-07-23T11:03:34;101519.29;;;29.39;69.49
45441;BME280;31189;38.790;-77.084;2022-07-23T11:06:02;101514.31;;;29.38;68.08
45441;BME280;31189;38.790;-77.084;2022-07-23T11:08:30;101515.69;;;29.23;67.62
45441;BME280;31189;38.790;-77.084;2022-07-23T11:11:14;101517.37;;;29.61;67.11
45441;BME280;31189;38.790;-77.084;2022-07-23T11:13:47;101519.13;;;29.72;67.43
45441;BME280;31189;38.790;-77.084;2022-07-23T11:16:18;101517.20;;;29.66;68.95
45441;BME280;31189;38.790;-77.084;2022-07-23T11:19:19;101519.78;;;30.40;68.00
45441;BME280;31189;38.790;-77.084;2022-07-23T11:21:49;101522.60;;;30.04;68.32
45441;BME280;31189;38.790;-77.084;2022-07-23T11:24:20;101522.94;;;30.01;67.19
45441;BME280;31189;38.790;-77.084;2022-07-23T11:26:52;101522.86;;;29.95;66.55
45441;BME280;31189;38.790;-77.084;2022-07-23T11:29:53;101525.22;;;30.69;66.60
45441;BME280;31189;38.790;-77.084;2022-07-23T11:32:54;101527.80;;;30.93;65.85
45441;BME280;31189;38.790;-77.084;2022-07-23T11:35:25;101533.14;;;30.68;64.91
45441;BME280;31189;38.790;-77.084;2022-07-23T11:37:54;101535.42;;;30.58;64.23
45441;BME280;31189;38.790;-77.084;2022-07-23T11:40:22;101536.76;;;30.74;63.57
45441;BME280;31189;38.790;-77.084;2022-07-23T11:42:59;101535.95;;;30.87;63.14
45441;BME280;31189;38.790;-77.084;2022-07-23T11:45:36;101534.41;;;30.85;63.73
45441;BME280;31189;38.790;-77.084;2022-07-23T11:48:05;101538.39;;;30.63;62.59
45441;BME280;31189;38.790;-77.084;2022-07-23T11:50:33;101538.28;;;30.49;63.40
45441;BME280;31189;38.790;-77.084;2022-07-23T11:53:02;101535.31;;;31.42;60.55
45441;BME280;31189;38.790;-77.084;2022-07-23T11:55:30;101530.68;;;31.09;59.75
45441;BME280;31189;38.790;-77.084;2022-07-23T11:57:58;101530.23;;;30.81;60.36
45441;BME280;31189;38.790;-77.084;2022-07-23T12:00:27;101527.03;;;30.38;58.50
45441;BME280;31189;38.790;-77.084;2022-07-23T12:02:58;101525.71;;;30.81;57.54
45441;BME280;31189;38.790;-77.084;2022-07-23T12:05:28;101525.14;;;30.60;57.14
45441;BME280;31189;38.790;-77.084;2022-07-23T12:07:56;101523.18;;;30.95;55.08
45441;BME280;31189;38.790;-77.084;2022-07-23T12:10:26;101525.65;;;31.25;55.65
45441;BME280;31189;38.790;-77.084;2022-07-23T12:12:56;101524.60;;;31.41;53.79
45441;BME280;31189;38.790;-77.084;2022-07-23T12:15:28;101522.92;;;31.34;53.55
45441;BME280;31189;38.790;-77.084;2022-07-23T12:17:56;101521.93;;;32.04;52.46
45441;BME280;31189;38.790;-77.084;2022-07-23T12:20:27;101522.93;;;31.68;52.41
45441;BME280;31189;38.790;-77.084;2022-07-23T12:22:57;101525.57;;;32.39;52.68
45441;BME280;31189;38.790;-77.084;2022-07-23T12:25:28;101523.09;;;32.05;52.02
45441;BME280;31189;38.790;-77.084;2022-07-23T12:28:02;101523.12;;;32.67;52.32
45441;BME280;31189;38.790;-77.084;2022-07-23T12:30:33;101526.27;;;32.43;51.84
45441;BME280;31189;38.790;-77.084;2022-07-23T12:33:03;101525.58;;;32.42;51.23
45441;BME280;31189;38.790;-77.084;2022-07-23T12:35:35;101525.54;;;32.46;49.41
45441;BME280;31189;38.790;-77.084;2022-07-23T12:38:05;101531.43;;;32.48;49.10
45441;BME280;31189;38.790;-77.084;2022-07-23T12:40:36;101529.18;;;32.92;48.22
45441;BME280;31189;38.790;-77.084;2022-07-23T12:43:06;101529.84;;;32.85;47.94